Thunder radar more information blitzortung!


avis per Pluja more information rain snow radar


Visita la nostra xarxa de llocs de meteo:

Template documentation
and downloads

And another site



Rain From: 15-11-2018 14:00 Until: 23:59 warning for: Rain Level: Orange info button

Pagina Historial Weather Underground text

Diari Resum Desembre 20, 2017 Unitats:  Imperial    Mètric   Tant
« Previous Dia
SegĂźent Dia »
Diari Setmana Mensual Anual Personalitzada
  Maxima: Minima: Media:
Temperatura: TemperatureC °F 0.5 °F 6.7 °F
Punt de rosada: DewpointC °F -3.4 °F -0.1 °F
Humitat: Humidity % 55 % 62 %
Wind Speed: WindSpeedKMH mph 0.0 mph 3.3 mph
RĂ fegues de vent: WindSpeedGustKMH mph - -
Vent:- - SE
Pression baro: PressurehPa in 1029.0 in -
Precipitacions: 0.0 in    
Historical Graphs
 
 
Dades de taula per Desembre 20, 2017
Temps Temperatura Punt de rosada Pression baro Vent Wind Speed RĂ fegues de vent Humitat Rainfall Rate (Hourly)
TemperatureC °F DewpointC °F PressurehPa in Calm     Humidity % HourlyPrecipMM in
00:00 1.3 °F -2.7 °F 1030.7 in ESE 1.6 mph 4.8 mph 75 % 0.0 in
00:01 6.0 °F -0.3 °F 1032.1 in Calm     64 % 0.0 in
00:10 1.0 °F -3.1 °F 1030.7 in Calm   3.2 mph 74 % 0.0 in
00:20 1.0 °F -3.1 °F 1030.7 in Calm   1.6 mph 74 % 0.0 in
00:40 0.8 °F -3.3 °F 1030.7 in Calm     74 % 0.0 in
00:50 1.0 °F -2.9 °F 1030.7 in NW 1.6 mph 3.2 mph 75 % 0.0 in
01:00 0.9 °F -3.2 °F 1030.7 in Calm     74 % 0.0 in
01:10 0.7 °F -3.4 °F 1030.0 in Calm   1.6 mph 74 % 0.0 in
01:20 0.7 °F -3.2 °F 1030.7 in Calm     75 % 0.0 in
01:30 0.7 °F -3.2 °F 1030.7 in West 1.6 mph 3.2 mph 75 % 0.0 in
01:40 0.6 °F -3.3 °F 1030.7 in Calm   1.6 mph 75 % 0.0 in
01:50 0.7 °F -3.2 °F 1030.7 in Calm     75 % 0.0 in
02:00 0.5 °F -3.4 °F 1030.7 in Calm   3.2 mph 75 % 0.0 in
02:10 0.5 °F -3.4 °F 1030.7 in SSW 1.6 mph 1.6 mph 75 % 0.0 in
02:20 0.5 °F -3.4 °F 1030.7 in Calm   3.2 mph 75 % 0.0 in
02:30 0.5 °F -3.4 °F 1030.7 in WNW 1.6 mph 3.2 mph 75 % 0.0 in
02:40 0.5 °F -3.4 °F 1030.7 in Calm   3.2 mph 75 % 0.0 in
02:50 0.6 °F -3.3 °F 1030.7 in Calm   3.2 mph 75 % 0.0 in
03:00 1.0 °F -2.8 °F 1030.7 in SSW 3.2 mph 4.8 mph 76 % 0.0 in
03:10 1.4 °F -2.4 °F 1032.1 in East 3.2 mph 3.2 mph 76 % 0.0 in
03:20 1.7 °F -2.1 °F 1030.7 in ENE 1.6 mph 3.2 mph 76 % 0.0 in
03:30 2.0 °F -1.9 °F 1030.7 in WSW 1.6 mph 3.2 mph 75 % 0.0 in
03:40 2.5 °F -1.5 °F 1030.7 in NNW 1.6 mph 3.2 mph 75 % 0.0 in
03:50 2.8 °F -1.4 °F 1030.7 in NNE 1.6 mph 1.6 mph 74 % 0.0 in
04:00 3.2 °F -1.2 °F 1030.7 in North 1.6 mph 4.8 mph 73 % 0.0 in
04:10 3.7 °F -0.9 °F 1030.7 in Calm   3.2 mph 72 % 0.0 in
04:20 4.3 °F -0.5 °F 1030.7 in West 1.6 mph 3.2 mph 71 % 0.0 in
04:30 4.2 °F -0.8 °F 1030.7 in Calm   4.8 mph 70 % 0.0 in
10:40 4.5 °F -0.7 °F 1030.7 in NW 1.9 mph   69 % 0.0 in
10:41 4.5 °F -0.7 °F 1030.7 in NW 1.9 mph   69 % 0.0 in
10:46 4.7 °F -0.7 °F 1030.7 in Calm     68 % 0.0 in
10:53 4.9 °F -0.5 °F 1030.7 in ENE 3.7 mph 3.7 mph 68 % 0.0 in
10:55 5.0 °F -0.4 °F 1032.1 in East 3.2 mph 3.2 mph 68 % 0.0 in
10:58 5.0 °F -0.6 °F 1032.1 in ENE 5.6 mph 5.6 mph 67 % 0.0 in
11:01 5.1 °F -0.6 °F 1032.1 in ENE 3.7 mph 3.7 mph 67 % 0.0 in
11:06 5.3 °F -0.3 °F 1032.1 in East 3.5 mph   67 % 0.0 in
11:07 5.2 °F -0.4 °F 1032.1 in ESE 3.7 mph 3.7 mph 67 % 0.0 in
11:12 5.4 °F -0.2 °F 1032.1 in ENE 1.9 mph 2.3 mph 67 % 0.0 in
11:15 5.5 °F -0.2 °F 1032.1 in ENE 2.6 mph 2.6 mph 67 % 0.0 in
11:17 5.6 °F -0.1 °F 1032.1 in NNE 3.7 mph 3.7 mph 67 % 0.0 in
11:21 5.6 °F -0.3 °F 1032.1 in NNE 3.9 mph 3.9 mph 66 % 0.0 in
11:26 5.6 °F -0.3 °F 1030.7 in ENE 5.6 mph 5.6 mph 66 % 0.0 in
11:27 5.6 °F -0.3 °F 1030.7 in ENE 5.6 mph 5.6 mph 66 % 0.0 in
11:32 5.4 °F -0.7 °F 1030.7 in NNE 7.4 mph 7.4 mph 65 % 0.0 in
11:33 5.5 °F -0.6 °F 1030.7 in NE 5.6 mph 5.6 mph 65 % 0.0 in
11:38 5.8 °F -0.3 °F 1030.7 in ENE 3.7 mph 3.9 mph 65 % 0.0 in
11:39 5.8 °F -0.3 °F 1030.7 in East 4.7 mph 4.7 mph 65 % 0.0 in
11:45 6.4 °F 0.1 °F 1030.7 in South 1.9 mph   64 % 0.0 in
11:46 6.4 °F -0.1 °F 1030.7 in ESE 5.6 mph 5.6 mph 63 % 0.0 in
11:51 6.5 °F -0.1 °F 1030.7 in ENE 3.9 mph 3.9 mph 63 % 0.0 in
11:52 6.5 °F -0.1 °F 1030.7 in ENE 3.9 mph 3.9 mph 63 % 0.0 in
11:53 6.6 °F 0.1 °F 1030.7 in ENE 4.7 mph 4.7 mph 63 % 0.0 in
11:58 6.8 °F 0.2 °F 1030.7 in ESE 5.6 mph 5.6 mph 63 % 0.0 in
12:01 6.9 °F 0.1 °F 1030.7 in SE 5.8 mph 5.8 mph 62 % 0.0 in
12:03 7.0 °F 0.2 °F 1030.7 in ENE 5.6 mph 5.6 mph 62 % 0.0 in
12:07 7.0 °F 0.2 °F 1030.7 in ENE 7.4 mph 7.4 mph 62 % 0.0 in
12:09 7.0 °F 0.2 °F 1030.7 in NNE 5.6 mph 5.6 mph 62 % 0.0 in
12:14 6.9 °F 0.1 °F 1030.7 in North 7.4 mph 7.4 mph 62 % 0.0 in
12:19 7.0 °F 0.2 °F 1030.7 in SSE 9.3 mph 9.3 mph 62 % 0.0 in
12:20 7.0 °F 0.2 °F 1030.7 in SSE 9.3 mph 9.3 mph 62 % 0.0 in
12:24 7.1 °F 0.3 °F 1030.7 in NNE 7.4 mph 7.4 mph 62 % 0.0 in
12:29 7.4 °F 0.6 °F 1030.7 in NE 5.6 mph 5.6 mph 62 % 0.0 in
12:30 7.6 °F 0.8 °F 1030.7 in ENE 3.9 mph 3.9 mph 62 % 0.0 in
12:31 7.6 °F 0.8 °F 1030.7 in NE 5.0 mph 5.0 mph 62 % 0.0 in
12:35 7.6 °F 0.8 °F 1030.7 in NNE 6.1 mph 6.1 mph 62 % 0.0 in
12:40 7.6 °F 0.6 °F 1030.0 in ENE 3.7 mph 3.7 mph 61 % 0.0 in
12:44 7.6 °F 0.6 °F 1030.0 in NNE 7.4 mph 7.4 mph 61 % 0.0 in
12:46 7.8 °F 0.7 °F 1030.0 in NE 4.7 mph 4.7 mph 61 % 0.0 in
12:50 7.8 °F 0.5 °F 1030.0 in NE 9.3 mph 9.3 mph 60 % 0.0 in
12:52 7.6 °F 0.3 °F 1030.0 in NNE 11.1 mph 11.1 mph 60 % 0.0 in
12:57 7.8 °F 0.5 °F 1030.0 in South 5.6 mph 5.6 mph 60 % 0.0 in
12:58 7.9 °F 0.6 °F 1030.0 in NE 5.6 mph 5.6 mph 60 % 0.0 in
13:03 7.8 °F 0.5 °F 1030.0 in NNE 9.3 mph 9.3 mph 60 % 0.0 in
13:04 7.8 °F 0.5 °F 1030.0 in NNE 6.4 mph 6.9 mph 60 % 0.0 in
13:09 7.9 °F 0.6 °F 1030.0 in NNE 9.5 mph 9.5 mph 60 % 0.0 in
13:10 7.9 °F 0.6 °F 1030.0 in NE 9.3 mph 9.3 mph 60 % 0.0 in
13:15 8.1 °F 0.8 °F 1030.0 in North 7.4 mph 7.4 mph 60 % 0.0 in
13:16 8.1 °F 0.8 °F 1030.0 in NE 7.4 mph 7.4 mph 60 % 0.0 in
13:21 8.0 °F 0.4 °F 1030.0 in NNW 11.1 mph 11.1 mph 59 % 0.0 in
13:22 8.0 °F 0.4 °F 1030.0 in NE 11.1 mph 11.1 mph 59 % 0.0 in
13:27 8.0 °F 0.4 °F 1030.0 in ENE 13.0 mph 13.0 mph 59 % 0.0 in
13:28 8.0 °F 0.4 °F 1030.0 in NNE 7.4 mph 7.4 mph 59 % 0.0 in
13:33 8.1 °F 0.6 °F 1030.0 in NE 9.3 mph 9.3 mph 59 % 0.0 in
13:38 8.2 °F 0.7 °F 1030.0 in East 5.6 mph 5.6 mph 59 % 0.0 in
13:43 8.4 °F 0.8 °F 1029.0 in East 3.9 mph 3.9 mph 59 % 0.0 in
13:44 8.4 °F 0.8 °F 1029.0 in NNE 5.6 mph 5.6 mph 59 % 0.0 in
13:49 8.4 °F 0.6 °F 1029.0 in NNE 7.4 mph 7.4 mph 58 % 0.0 in
13:50 8.4 °F 0.6 °F 1029.0 in North 5.6 mph 5.6 mph 58 % 0.0 in
13:56 8.5 °F 0.9 °F 1029.0 in East 3.7 mph 3.7 mph 59 % 0.0 in
14:01 8.7 °F 0.9 °F 1029.0 in NNE 5.6 mph 5.6 mph 58 % 0.0 in
14:02 8.7 °F 0.9 °F 1029.0 in ENE 4.2 mph 4.2 mph 58 % 0.0 in
14:07 8.7 °F 0.9 °F 1029.0 in NNW 3.7 mph 4.2 mph 58 % 0.0 in
14:12 8.8 °F 1.0 °F 1030.0 in ENE 7.4 mph 7.4 mph 58 % 0.0 in
14:13 8.8 °F 1.0 °F 1030.0 in ENE 7.4 mph 7.4 mph 58 % 0.0 in
14:18 8.7 °F 0.9 °F 1030.0 in NNE 7.4 mph 7.4 mph 58 % 0.0 in
14:24 8.8 °F 0.7 °F 1030.0 in NE 5.6 mph 5.8 mph 57 % 0.0 in
14:26 8.9 °F 0.8 °F 1030.0 in NNE 5.6 mph 5.6 mph 57 % 0.0 in
14:29 8.8 °F 0.7 °F 1030.0 in NE 9.3 mph 9.3 mph 57 % 0.0 in
14:33 8.9 °F 0.8 °F 1030.0 in NNE 6.9 mph 6.9 mph 57 % 0.0 in
14:35 8.9 °F 0.8 °F 1030.0 in NNE 7.9 mph 7.9 mph 57 % 0.0 in
14:38 9.0 °F 0.9 °F 1030.0 in NE 5.6 mph 5.6 mph 57 % 0.0 in
14:40 9.0 °F 0.9 °F 1030.0 in ENE 5.6 mph 5.6 mph 57 % 0.0 in
14:45 9.0 °F 0.9 °F 1030.0 in NNE 3.7 mph 3.7 mph 57 % 0.0 in
14:46 9.0 °F 0.9 °F 1030.0 in North 6.1 mph 6.1 mph 57 % 0.0 in
14:50 9.0 °F 0.9 °F 1030.0 in NE 5.6 mph 5.6 mph 57 % 0.0 in
14:52 9.0 °F 0.9 °F 1030.0 in ENE 9.7 mph 9.7 mph 57 % 0.0 in
14:55 9.0 °F 0.9 °F 1030.0 in NNE 8.7 mph 8.7 mph 57 % 0.0 in
14:58 9.0 °F 0.9 °F 1030.0 in NE 7.4 mph 7.4 mph 57 % 0.0 in
15:03 9.1 °F 1.0 °F 1030.0 in NE 5.6 mph 5.6 mph 57 % 0.0 in
15:04 9.1 °F 1.0 °F 1030.0 in NNE 8.7 mph 8.7 mph 57 % 0.0 in
15:05 9.0 °F 0.9 °F 1030.0 in NNE 9.3 mph 9.3 mph 57 % 0.0 in
15:10 9.1 °F 0.8 °F 1030.0 in NNE 7.4 mph 7.4 mph 56 % 0.0 in
15:12 9.1 °F 0.8 °F 1030.0 in WNW 7.4 mph 7.4 mph 56 % 0.0 in
15:17 9.2 °F 0.9 °F 1030.0 in ENE 7.4 mph 7.4 mph 56 % 0.0 in
15:18 9.2 °F 0.9 °F 1030.0 in NE 3.7 mph 3.7 mph 56 % 0.0 in
15:20 9.3 °F 0.9 °F 1030.0 in NNE 3.7 mph 3.7 mph 56 % 0.0 in
15:24 9.3 °F 0.9 °F 1030.0 in NNW 4.2 mph 4.2 mph 56 % 0.0 in
15:29 9.4 °F 1.1 °F 1030.0 in NNE 3.7 mph 3.7 mph 56 % 0.0 in
15:31 9.4 °F 1.1 °F 1030.0 in NE 7.4 mph 7.4 mph 56 % 0.0 in
15:33 9.4 °F 1.1 °F 1030.0 in NNE 7.4 mph 7.4 mph 56 % 0.0 in
15:36 9.5 °F 1.2 °F 1030.0 in ENE 3.7 mph 3.7 mph 56 % 0.0 in
15:37 9.5 °F 1.2 °F 1030.0 in ENE 3.7 mph 3.7 mph 56 % 0.0 in
15:38 9.6 °F 1.2 °F 1030.0 in NNW 3.2 mph   56 % 0.0 in
15:43 9.7 °F 1.3 °F 1030.0 in NNE 3.7 mph 3.7 mph 56 % 0.0 in
15:48 9.7 °F 1.3 °F 1030.0 in ENE 5.6 mph 5.6 mph 56 % 0.0 in
15:53 9.7 °F 1.3 °F 1030.0 in NNE 5.6 mph 5.6 mph 56 % 0.0 in
15:55 9.7 °F 1.1 °F 1030.0 in ENE 5.6 mph 5.6 mph 55 % 0.0 in
16:00 9.8 °F 1.2 °F 1030.0 in NE 7.4 mph 7.4 mph 55 % 0.0 in
16:01 9.7 °F 1.1 °F 1030.0 in NNW 3.9 mph 3.9 mph 55 % 0.0 in
16:06 9.7 °F 1.1 °F 1030.0 in NNE 5.6 mph 5.6 mph 55 % 0.0 in
16:08 9.8 °F 1.2 °F 1030.0 in North 3.9 mph 3.9 mph 55 % 0.0 in
16:13 9.8 °F 1.2 °F 1030.0 in North 5.6 mph 5.6 mph 55 % 0.0 in
16:14 9.8 °F 1.2 °F 1030.0 in NNE 5.6 mph 5.6 mph 55 % 0.0 in
16:19 9.7 °F 1.1 °F 1030.0 in ENE 2.3 mph 2.6 mph 55 % 0.0 in
16:20 9.7 °F 1.1 °F 1030.0 in ENE 2.3 mph 2.6 mph 55 % 0.0 in
16:25 9.6 °F 1.0 °F 1030.0 in NNE 5.8 mph 5.8 mph 55 % 0.0 in
16:26 9.6 °F 1.0 °F 1030.0 in NE 5.6 mph 5.6 mph 55 % 0.0 in
16:27 9.6 °F 1.0 °F 1030.0 in NE 5.6 mph 5.6 mph 55 % 0.0 in
16:31 9.5 °F 0.9 °F 1030.0 in ENE 5.6 mph 5.6 mph 55 % 0.0 in
16:36 9.4 °F 0.8 °F 1030.0 in NNE 6.9 mph 6.9 mph 55 % 0.0 in
16:37 9.4 °F 0.8 °F 1030.0 in NE 7.4 mph 7.4 mph 55 % 0.0 in
16:42 9.3 °F 0.7 °F 1030.0 in ENE 5.6 mph 5.6 mph 55 % 0.0 in
16:43 9.3 °F 0.7 °F 1030.0 in NNE 3.9 mph 3.9 mph 55 % 0.0 in
16:48 9.1 °F 0.5 °F 1030.0 in North 7.4 mph 7.4 mph 55 % 0.0 in
16:53 9.0 °F 0.4 °F 1030.0 in NNE 5.6 mph 5.6 mph 55 % 0.0 in
16:56 9.0 °F 0.4 °F 1030.0 in NNE 3.7 mph 4.2 mph 55 % 0.0 in
16:59 8.9 °F 0.3 °F 1030.0 in Calm   1.9 mph 55 % 0.0 in
17:04 8.7 °F 0.2 °F 1030.0 in NNE 3.7 mph 3.7 mph 55 % 0.0 in
17:08 8.6 °F 0.3 °F 1030.0 in West 1.9 mph 1.9 mph 56 % 0.0 in
17:10 8.6 °F 0.3 °F 1030.0 in Calm   1.9 mph 56 % 0.0 in
17:15 8.4 °F 0.1 °F 1030.0 in NNE 3.7 mph 3.7 mph 56 % 0.0 in
17:16 8.3 °F 0.0 °F 1030.0 in North 1.9 mph   56 % 0.0 in
17:21 8.2 °F -0.1 °F 1030.0 in NE 3.7 mph 3.7 mph 56 % 0.0 in
17:23 8.2 °F -0.1 °F 1030.0 in North 1.9 mph 2.3 mph 56 % 0.0 in
17:28 8.0 °F -0.3 °F 1030.7 in ENE 5.0 mph 5.0 mph 56 % 0.0 in
17:31 7.9 °F -0.3 °F 1030.7 in WNW 2.6 mph   56 % 0.0 in
17:33 7.9 °F -0.3 °F 1030.7 in West 3.7 mph 3.7 mph 56 % 0.0 in
17:38 7.8 °F -0.2 °F 1030.7 in NW 1.9 mph   57 % 0.0 in
17:43 7.7 °F -0.3 °F 1030.7 in WNW 2.3 mph 2.3 mph 57 % 0.0 in
17:44 7.7 °F -0.3 °F 1030.7 in WNW 2.3 mph 2.3 mph 57 % 0.0 in
17:49 7.6 °F -0.4 °F 1030.7 in NW 2.3 mph   57 % 0.0 in
17:54 7.5 °F -0.5 °F 1030.7 in ENE 2.6 mph   57 % 0.0 in
17:55 7.5 °F -0.5 °F 1030.7 in ENE 1.9 mph 2.3 mph 57 % 0.0 in
18:00 7.4 °F -0.6 °F 1030.7 in North 2.3 mph   57 % 0.0 in
18:01 7.4 °F -0.3 °F 1030.7 in North 1.9 mph   58 % 0.0 in
18:07 7.3 °F -0.4 °F 1030.7 in NW 1.9 mph 1.9 mph 58 % 0.0 in
18:08 7.3 °F -0.4 °F 1030.7 in NW 2.3 mph   58 % 0.0 in
18:12 7.3 °F -0.4 °F 1030.7 in WNW 3.7 mph 3.7 mph 58 % 0.0 in
18:17 7.3 °F -0.4 °F 1030.7 in Calm     58 % 0.0 in
18:18 7.3 °F -0.4 °F 1030.7 in Calm     58 % 0.0 in
18:20 6.4 °F 0.1 °F 1033.7 in Calm     64 % 0.0 in
18:23 7.4 °F -0.3 °F 1030.7 in NE 1.9 mph   58 % 0.0 in
18:24 7.4 °F -0.3 °F 1030.7 in NNE 1.9 mph   58 % 0.0 in
18:26 7.4 °F -0.3 °F 1032.1 in ENE 2.6 mph 2.6 mph 58 % 0.0 in
18:28 7.4 °F -0.1 °F 1032.1 in North 1.9 mph 1.9 mph 59 % 0.0 in
18:30 6.5 °F 0.2 °F 1033.7 in SW 1.6 mph 3.2 mph 64 % 0.0 in
18:33 7.4 °F -0.1 °F 1032.1 in WSW 1.9 mph 1.9 mph 59 % 0.0 in
18:34 7.3 °F -0.2 °F 1032.1 in WSW 2.6 mph   59 % 0.0 in
18:37 7.3 °F -0.2 °F 1032.1 in WSW 2.6 mph 2.6 mph 59 % 0.0 in
18:40 6.4 °F 0.1 °F 1033.7 in Calm   3.2 mph 64 % 0.0 in
18:41 7.3 °F -0.2 °F 1032.1 in WSW 1.9 mph 2.6 mph 59 % 0.0 in
18:44 7.3 °F -0.2 °F 1032.1 in WSW 2.3 mph 2.3 mph 59 % 0.0 in
18:47 7.3 °F -0.2 °F 1032.1 in WSW 3.7 mph 3.7 mph 59 % 0.0 in
18:50 6.2 °F -0.1 °F 1033.7 in Calm   1.6 mph 64 % 0.0 in
18:52 7.3 °F -0.2 °F 1032.1 in WSW 3.7 mph 3.7 mph 59 % 0.0 in
18:57 7.3 °F -0.2 °F 1032.1 in SW 3.7 mph 3.7 mph 59 % 0.0 in
18:58 7.3 °F -0.2 °F 1032.1 in Calm     59 % 0.0 in
19:00 6.2 °F -0.1 °F 1033.7 in WNW 1.6 mph 3.2 mph 64 % 0.0 in
19:03 7.3 °F -0.2 °F 1032.1 in Calm     59 % 0.0 in
19:04 7.3 °F -0.2 °F 1032.1 in Calm     59 % 0.0 in
19:09 7.3 °F -0.2 °F 1032.1 in SW 1.9 mph   59 % 0.0 in
19:10 7.3 °F -0.2 °F 1032.1 in SW 1.9 mph   59 % 0.0 in
19:14 7.3 °F -0.2 °F 1032.1 in SW 3.2 mph   59 % 0.0 in
19:17 7.3 °F -0.2 °F 1032.1 in SW 3.9 mph 3.9 mph 59 % 0.0 in
19:20 6.1 °F 0.0 °F 1033.7 in Calm   1.6 mph 65 % 0.0 in
19:22 7.2 °F -0.3 °F 1032.1 in Calm     59 % 0.0 in
19:23 7.2 °F -0.3 °F 1032.1 in WSW 2.6 mph   59 % 0.0 in
19:28 7.1 °F -0.4 °F 1032.1 in WSW 3.9 mph 3.9 mph 59 % 0.0 in
19:30 6.1 °F 0.0 °F 1033.7 in Calm   1.6 mph 65 % 0.0 in
19:33 7.1 °F -0.2 °F 1032.1 in SW 3.7 mph   60 % 0.0 in
19:38 7.0 °F -0.2 °F 1032.1 in SW 3.7 mph 3.7 mph 60 % 0.0 in
19:39 7.0 °F -0.2 °F 1032.1 in SW 3.7 mph 3.7 mph 60 % 0.0 in
19:40 6.1 °F 0.0 °F 1033.7 in North 1.6 mph 3.2 mph 65 % 0.0 in
19:44 7.0 °F -0.2 °F 1032.1 in SW 2.3 mph 2.3 mph 60 % 0.0 in
19:49 7.0 °F -0.2 °F 1032.1 in SW 1.9 mph 1.9 mph 60 % 0.0 in
19:50 7.0 °F -0.2 °F 1032.1 in SW 1.6 mph 3.2 mph 60 % 0.0 in
19:55 7.0 °F -0.2 °F 1032.1 in SW 3.2 mph 4.8 mph 60 % 0.0 in
19:58 6.9 °F -0.3 °F 1032.1 in Calm     60 % 0.0 in
20:00 6.9 °F -0.3 °F 1032.1 in WSW 1.9 mph   60 % 0.0 in
20:05 6.9 °F -0.3 °F 1032.1 in WSW 3.7 mph 3.7 mph 60 % 0.0 in
20:06 6.9 °F -0.3 °F 1032.1 in WSW 3.7 mph 3.7 mph 60 % 0.0 in
20:10 6.0 °F 0.1 °F 1032.7 in Calm     66 % 0.0 in
20:11 6.8 °F -0.2 °F 1032.1 in WSW 1.9 mph 1.9 mph 61 % 0.0 in
20:12 6.8 °F -0.2 °F 1032.1 in WSW 1.9 mph 1.9 mph 61 % 0.0 in
20:17 6.8 °F -0.2 °F 1032.1 in SW 1.9 mph 1.9 mph 61 % 0.0 in
20:20 6.1 °F 0.2 °F 1032.7 in SSW 1.6 mph 3.2 mph 66 % 0.0 in
20:22 6.8 °F -0.2 °F 1032.1 in SW 1.9 mph   61 % 0.0 in
20:23 6.8 °F -0.2 °F 1032.1 in SW 2.6 mph 2.6 mph 61 % 0.0 in
20:28 6.8 °F -0.2 °F 1032.1 in SW 1.9 mph   61 % 0.0 in
20:29 6.8 °F -0.2 °F 1032.1 in SW 2.3 mph 2.3 mph 61 % 0.0 in
20:30 6.0 °F 0.1 °F 1032.7 in Calm     66 % 0.0 in
20:34 6.8 °F -0.2 °F 1032.1 in SW 3.7 mph 3.7 mph 61 % 0.0 in
20:35 6.8 °F -0.2 °F 1032.1 in SW 3.9 mph 3.9 mph 61 % 0.0 in
20:40 6.8 °F -0.2 °F 1032.1 in SW 1.9 mph 1.9 mph 61 % 0.0 in
20:41 6.7 °F -0.3 °F 1032.1 in SW 1.9 mph   61 % 0.0 in
20:43 6.7 °F -0.3 °F 1032.1 in WSW 1.9 mph   61 % 0.0 in
20:46 6.7 °F -0.3 °F 1032.1 in Calm     61 % 0.0 in
20:50 5.9 °F 0.0 °F 1033.7 in Calm   3.2 mph 66 % 0.0 in
20:51 6.7 °F -0.3 °F 1032.1 in Calm     61 % 0.0 in
20:56 6.7 °F -0.3 °F 1032.1 in Calm     61 % 0.0 in
20:58 6.6 °F -0.2 °F 1032.1 in Calm     62 % 0.0 in
21:03 6.7 °F -0.1 °F 1032.1 in SW 1.9 mph   62 % 0.0 in
21:04 6.7 °F -0.1 °F 1032.1 in SW 2.6 mph   62 % 0.0 in
21:09 6.7 °F -0.1 °F 1032.1 in WSW 1.9 mph   62 % 0.0 in
21:10 5.8 °F -0.1 °F 1033.7 in Calm   1.6 mph 66 % 0.0 in
21:14 6.6 °F -0.2 °F 1032.1 in Calm     62 % 0.0 in
21:19 6.6 °F -0.2 °F 1032.1 in Calm     62 % 0.0 in
21:20 6.6 °F -0.2 °F 1032.1 in Calm     62 % 0.0 in
21:25 6.6 °F -0.2 °F 1032.1 in Calm     62 % 0.0 in
21:26 6.6 °F -0.2 °F 1032.1 in Calm     62 % 0.0 in
21:27 6.6 °F -0.2 °F 1032.1 in Calm     62 % 0.0 in
21:32 6.6 °F -0.2 °F 1032.1 in Calm     62 % 0.0 in
21:37 6.6 °F -0.2 °F 1032.1 in Calm     62 % 0.0 in
21:38 6.6 °F -0.2 °F 1032.1 in Calm     62 % 0.0 in
21:43 6.6 °F -0.2 °F 1032.1 in Calm     62 % 0.0 in
21:45 6.6 °F -0.2 °F 1032.1 in SW 2.3 mph   62 % 0.0 in
21:47 6.6 °F -0.2 °F 1032.1 in SSW 1.9 mph   62 % 0.0 in
21:50 6.5 °F -0.1 °F 1032.1 in SSW 3.7 mph 3.7 mph 63 % 0.0 in
21:53 6.5 °F -0.3 °F 1032.1 in Calm     62 % 0.0 in
21:55 5.6 °F -0.3 °F 1033.7 in Calm   1.6 mph 66 % 0.0 in
21:58 6.5 °F -0.1 °F 1032.1 in SSW 2.3 mph 2.3 mph 63 % 0.0 in
22:03 6.4 °F -0.3 °F 1032.1 in SW 4.2 mph 4.2 mph 62 % 0.0 in
22:05 5.5 °F -0.3 °F 1033.7 in Calm   1.6 mph 66 % 0.0 in
22:07 6.4 °F -0.3 °F 1032.1 in WSW 3.7 mph 3.7 mph 62 % 0.0 in
22:09 6.3 °F -0.4 °F 1032.1 in SW 3.9 mph 3.9 mph 62 % 0.0 in
22:14 6.3 °F -0.2 °F 1032.7 in SW 3.5 mph 3.5 mph 63 % 0.0 in
22:15 6.3 °F -0.2 °F 1032.7 in SW 3.7 mph 3.7 mph 63 % 0.0 in
22:20 6.4 °F -0.1 °F 1032.7 in West 3.7 mph 3.7 mph 63 % 0.0 in
22:23 6.4 °F -0.1 °F 1032.7 in WSW 3.9 mph 3.9 mph 63 % 0.0 in
22:25 6.4 °F -0.1 °F 1032.7 in SW 5.6 mph 5.6 mph 63 % 0.0 in
22:30 6.4 °F -0.1 °F 1032.7 in WSW 3.7 mph 3.7 mph 63 % 0.0 in
22:31 6.4 °F -0.1 °F 1032.7 in WSW 3.7 mph 3.7 mph 63 % 0.0 in
22:35 5.2 °F -0.7 °F 1033.7 in Calm   3.2 mph 66 % 0.0 in
22:36 6.4 °F -0.1 °F 1032.7 in SW 1.9 mph 2.3 mph 63 % 0.0 in
22:41 6.4 °F -0.1 °F 1032.7 in Calm     63 % 0.0 in
22:42 6.4 °F -0.1 °F 1032.7 in Calm     63 % 0.0 in
22:45 5.1 °F -0.6 °F 1033.7 in WSW 1.6 mph 1.6 mph 67 % 0.0 in
22:47 6.4 °F -0.1 °F 1032.7 in WSW 2.3 mph   63 % 0.0 in
22:50 6.4 °F -0.1 °F 1032.7 in SW 3.7 mph 3.7 mph 63 % 0.0 in
22:53 6.4 °F -0.1 °F 1032.7 in WSW 3.7 mph 3.7 mph 63 % 0.0 in
22:55 5.0 °F -0.6 °F 1033.7 in WSW 1.6 mph 3.2 mph 67 % 0.0 in
22:58 6.4 °F -0.1 °F 1032.7 in SW 1.9 mph 1.9 mph 63 % 0.0 in
23:00 6.4 °F -0.1 °F 1032.7 in Calm   3.2 mph 63 % 0.0 in
23:05 6.4 °F -0.1 °F 1032.7 in Calm     63 % 0.0 in
23:10 6.4 °F -0.1 °F 1032.7 in Calm     63 % 0.0 in
23:11 6.4 °F -0.1 °F 1032.7 in Calm     63 % 0.0 in
23:15 4.9 °F -0.7 °F 1033.7 in WSW 3.2 mph 3.2 mph 67 % 0.0 in
23:16 6.4 °F -0.1 °F 1032.7 in Calm     63 % 0.0 in
23:17 6.5 °F -0.1 °F 1032.7 in Calm     63 % 0.0 in
23:22 6.4 °F -0.1 °F 1032.7 in SW 2.3 mph   63 % 0.0 in
23:25 4.9 °F -0.7 °F 1033.7 in Calm   3.2 mph 67 % 0.0 in
23:27 6.3 °F -0.2 °F 1033.7 in WSW 2.3 mph 2.3 mph 63 % 0.0 in
23:28 6.3 °F -0.2 °F 1033.7 in WSW 2.3 mph 2.3 mph 63 % 0.0 in
23:32 6.3 °F -0.2 °F 1033.7 in West 3.5 mph   63 % 0.0 in
23:33 6.4 °F -0.1 °F 1033.7 in West 3.7 mph 3.7 mph 63 % 0.0 in
23:35 4.8 °F -0.6 °F 1033.7 in Calm   3.2 mph 68 % 0.0 in
23:37 6.5 °F -0.1 °F 1033.7 in WSW 2.6 mph 2.6 mph 63 % 0.0 in
23:39 6.5 °F -0.1 °F 1033.7 in WSW 1.9 mph   63 % 0.0 in
23:44 6.4 °F -0.1 °F 1032.7 in SW 2.3 mph 2.3 mph 63 % 0.0 in
23:45 4.8 °F -0.6 °F 1033.7 in Calm     68 % 0.0 in
23:49 6.3 °F 0.0 °F 1032.7 in SW 3.2 mph 3.2 mph 64 % 0.0 in
23:50 6.3 °F 0.0 °F 1032.7 in WSW 3.7 mph 3.7 mph 64 % 0.0 in
23:54 6.3 °F 0.0 °F 1032.7 in Calm     64 % 0.0 in
23:55 4.8 °F -0.6 °F 1033.7 in Calm   1.6 mph 68 % 0.0 in
23:59 6.3 °F 0.0 °F 1032.7 in Calm     64 % 0.0 in
Meteo Sesrovires
Elogis d' Weather Underground - 1.75 mb

Guio original per  Jim McMurry - jmcmurry@mwt.net Adaptat per a la plantilla per  Wim van der Kuil - Leuven-Template.eu

Trobareu la nostra informacio del temps tambe a:

Weather Underground

AWEKAS